sensor_id;sensor_type;location;lat;lon;timestamp;P1;durP1;ratioP1;P2;durP2;ratioP2
45402;SDS011;47427;51.976;5.326;2022-11-15T00:01:00;75.85;;;36.90;;
45402;SDS011;47427;51.976;5.326;2022-11-15T00:08:41;87.40;;;34.72;;
45402;SDS011;47427;51.976;5.326;2022-11-15T00:12:21;89.05;;;37.25;;
45402;SDS011;47427;51.976;5.326;2022-11-15T00:16:02;76.70;;;35.55;;
45402;SDS011;47427;51.976;5.326;2022-11-15T00:19:43;72.32;;;34.03;;
45402;SDS011;47427;51.976;5.326;2022-11-15T00:23:24;84.40;;;35.47;;
45402;SDS011;47427;51.976;5.326;2022-11-15T00:27:04;78.07;;;38.92;;
45402;SDS011;47427;51.976;5.326;2022-11-15T00:30:44;75.53;;;37.10;;
45402;SDS011;47427;51.976;5.326;2022-11-15T00:34:24;72.85;;;35.70;;
45402;SDS011;47427;51.976;5.326;2022-11-15T00:38:05;90.18;;;39.85;;
45402;SDS011;47427;51.976;5.326;2022-11-15T00:41:45;87.00;;;37.67;;
45402;SDS011;47427;51.976;5.326;2022-11-15T00:45:25;81.93;;;37.42;;
45402;SDS011;47427;51.976;5.326;2022-11-15T00:49:05;77.82;;;34.20;;
45402;SDS011;47427;51.976;5.326;2022-11-15T00:53:06;83.70;;;36.92;;
45402;SDS011;47427;51.976;5.326;2022-11-15T00:56:46;80.10;;;38.00;;
45402;SDS011;47427;51.976;5.326;2022-11-15T01:00:26;75.80;;;36.28;;
45402;SDS011;47427;51.976;5.326;2022-11-15T01:04:06;73.85;;;35.05;;
45402;SDS011;47427;51.976;5.326;2022-11-15T01:07:46;82.15;;;38.63;;
45402;SDS011;47427;51.976;5.326;2022-11-15T01:11:30;83.40;;;39.13;;
45402;SDS011;47427;51.976;5.326;2022-11-15T01:15:10;97.40;;;40.05;;
45402;SDS011;47427;51.976;5.326;2022-11-15T01:18:50;93.88;;;39.75;;
45402;SDS011;47427;51.976;5.326;2022-11-15T01:22:30;83.15;;;39.40;;
45402;SDS011;47427;51.976;5.326;2022-11-15T01:26:12;81.78;;;38.28;;
45402;SDS011;47427;51.976;5.326;2022-11-15T01:30:14;80.43;;;37.13;;
45402;SDS011;47427;51.976;5.326;2022-11-15T01:33:54;75.00;;;36.58;;
45402;SDS011;47427;51.976;5.326;2022-11-15T01:37:35;82.32;;;38.20;;
45402;SDS011;47427;51.976;5.326;2022-11-15T01:41:19;78.72;;;37.45;;
45402;SDS011;47427;51.976;5.326;2022-11-15T01:45:14;81.68;;;39.42;;
45402;SDS011;47427;51.976;5.326;2022-11-15T01:48:57;70.10;;;38.15;;
45402;SDS011;47427;51.976;5.326;2022-11-15T01:52:41;80.13;;;40.22;;
45402;SDS011;47427;51.976;5.326;2022-11-15T01:56:23;78.60;;;42.22;;
45402;SDS011;47427;51.976;5.326;2022-11-15T02:00:07;75.40;;;39.45;;
45402;SDS011;47427;51.976;5.326;2022-11-15T02:03:53;77.30;;;38.40;;
45402;SDS011;47427;51.976;5.326;2022-11-15T02:07:38;71.90;;;36.70;;
45402;SDS011;47427;51.976;5.326;2022-11-15T02:11:19;62.03;;;34.95;;
45402;SDS011;47427;51.976;5.326;2022-11-15T02:15:00;58.45;;;34.83;;
45402;SDS011;47427;51.976;5.326;2022-11-15T02:18:45;67.53;;;36.25;;
45402;SDS011;47427;51.976;5.326;2022-11-15T02:39:10;45.90;;;29.77;;
45402;SDS011;47427;51.976;5.326;2022-11-15T02:43:17;51.05;;;30.23;;
45402;SDS011;47427;51.976;5.326;2022-11-15T02:47:24;54.50;;;30.40;;
45402;SDS011;47427;51.976;5.326;2022-11-15T02:51:10;47.38;;;29.65;;
45402;SDS011;47427;51.976;5.326;2022-11-15T02:54:53;53.90;;;29.45;;
45402;SDS011;47427;51.976;5.326;2022-11-15T02:58:48;49.85;;;30.30;;
45402;SDS011;47427;51.976;5.326;2022-11-15T03:07:11;47.97;;;29.02;;
45402;SDS011;47427;51.976;5.326;2022-11-15T03:11:11;46.25;;;29.67;;
45402;SDS011;47427;51.976;5.326;2022-11-15T03:15:01;47.17;;;28.27;;
45402;SDS011;47427;51.976;5.326;2022-11-15T03:19:00;48.35;;;30.80;;
45402;SDS011;47427;51.976;5.326;2022-11-15T03:23:20;53.80;;;30.20;;
45402;SDS011;47427;51.976;5.326;2022-11-15T03:27:01;43.35;;;28.77;;
45402;SDS011;47427;51.976;5.326;2022-11-15T03:30:44;48.45;;;30.45;;
45402;SDS011;47427;51.976;5.326;2022-11-15T03:34:31;47.40;;;30.77;;
45402;SDS011;47427;51.976;5.326;2022-11-15T03:38:29;47.97;;;29.35;;
45402;SDS011;47427;51.976;5.326;2022-11-15T03:42:22;46.85;;;29.90;;
45402;SDS011;47427;51.976;5.326;2022-11-15T03:46:44;48.47;;;31.47;;
45402;SDS011;47427;51.976;5.326;2022-11-15T03:50:32;51.08;;;29.98;;
45402;SDS011;47427;51.976;5.326;2022-11-15T03:54:13;49.97;;;30.33;;
45402;SDS011;47427;51.976;5.326;2022-11-15T03:57:54;57.70;;;32.85;;
45402;SDS011;47427;51.976;5.326;2022-11-15T04:01:39;50.00;;;30.67;;
45402;SDS011;47427;51.976;5.326;2022-11-15T04:05:20;48.75;;;30.95;;
45402;SDS011;47427;51.976;5.326;2022-11-15T04:09:00;55.40;;;33.15;;
45402;SDS011;47427;51.976;5.326;2022-11-15T04:12:42;40.60;;;27.90;;
45402;SDS011;47427;51.976;5.326;2022-11-15T04:16:25;48.15;;;29.55;;
45402;SDS011;47427;51.976;5.326;2022-11-15T04:20:07;41.13;;;28.95;;
45402;SDS011;47427;51.976;5.326;2022-11-15T04:24:28;49.08;;;31.73;;
45402;SDS011;47427;51.976;5.326;2022-11-15T04:28:09;50.08;;;29.13;;
45402;SDS011;47427;51.976;5.326;2022-11-15T04:31:50;46.47;;;29.00;;
45402;SDS011;47427;51.976;5.326;2022-11-15T04:35:30;42.33;;;29.83;;
45402;SDS011;47427;51.976;5.326;2022-11-15T04:39:10;42.45;;;28.85;;
45402;SDS011;47427;51.976;5.326;2022-11-15T04:42:50;42.97;;;28.77;;
45402;SDS011;47427;51.976;5.326;2022-11-15T04:46:31;41.97;;;28.63;;
45402;SDS011;47427;51.976;5.326;2022-11-15T04:50:11;44.35;;;29.23;;
45402;SDS011;47427;51.976;5.326;2022-11-15T04:53:54;41.63;;;28.77;;
45402;SDS011;47427;51.976;5.326;2022-11-15T04:57:34;42.25;;;27.48;;
45402;SDS011;47427;51.976;5.326;2022-11-15T05:01:15;43.50;;;29.10;;
45402;SDS011;47427;51.976;5.326;2022-11-15T05:04:55;40.67;;;27.45;;
45402;SDS011;47427;51.976;5.326;2022-11-15T05:08:36;39.75;;;27.52;;
45402;SDS011;47427;51.976;5.326;2022-11-15T05:12:16;38.22;;;28.70;;
45402;SDS011;47427;51.976;5.326;2022-11-15T05:15:56;42.33;;;29.58;;
45402;SDS011;47427;51.976;5.326;2022-11-15T05:19:36;40.55;;;28.20;;
45402;SDS011;47427;51.976;5.326;2022-11-15T05:23:17;40.78;;;29.38;;
45402;SDS011;47427;51.976;5.326;2022-11-15T05:26:58;43.80;;;28.92;;
45402;SDS011;47427;51.976;5.326;2022-11-15T05:30:38;40.30;;;28.73;;
45402;SDS011;47427;51.976;5.326;2022-11-15T05:34:18;43.50;;;29.65;;
45402;SDS011;47427;51.976;5.326;2022-11-15T05:38:01;50.65;;;30.23;;
45402;SDS011;47427;51.976;5.326;2022-11-15T05:41:44;42.13;;;27.45;;
45402;SDS011;47427;51.976;5.326;2022-11-15T05:45:31;36.58;;;26.25;;
45402;SDS011;47427;51.976;5.326;2022-11-15T05:49:13;39.05;;;26.70;;
45402;SDS011;47427;51.976;5.326;2022-11-15T05:52:57;40.95;;;28.80;;
45402;SDS011;47427;51.976;5.326;2022-11-15T05:56:38;40.53;;;28.40;;
45402;SDS011;47427;51.976;5.326;2022-11-15T06:00:18;46.97;;;29.52;;
45402;SDS011;47427;51.976;5.326;2022-11-15T06:03:59;45.83;;;28.48;;
45402;SDS011;47427;51.976;5.326;2022-11-15T06:07:39;43.63;;;30.08;;
45402;SDS011;47427;51.976;5.326;2022-11-15T06:11:19;43.58;;;30.23;;
45402;SDS011;47427;51.976;5.326;2022-11-15T06:14:59;48.03;;;29.15;;
45402;SDS011;47427;51.976;5.326;2022-11-15T06:18:39;47.67;;;30.13;;
45402;SDS011;47427;51.976;5.326;2022-11-15T06:22:19;38.15;;;28.27;;
45402;SDS011;47427;51.976;5.326;2022-11-15T06:26:00;41.47;;;26.77;;
45402;SDS011;47427;51.976;5.326;2022-11-15T06:29:42;42.97;;;27.98;;
45402;SDS011;47427;51.976;5.326;2022-11-15T06:33:23;46.70;;;29.33;;
45402;SDS011;47427;51.976;5.326;2022-11-15T06:37:03;39.75;;;26.65;;
45402;SDS011;47427;51.976;5.326;2022-11-15T06:40:43;40.45;;;26.52;;
45402;SDS011;47427;51.976;5.326;2022-11-15T06:44:26;45.13;;;28.08;;
45402;SDS011;47427;51.976;5.326;2022-11-15T06:48:06;42.22;;;27.48;;
45402;SDS011;47427;51.976;5.326;2022-11-15T06:51:46;45.63;;;27.85;;
45402;SDS011;47427;51.976;5.326;2022-11-15T06:55:27;44.08;;;26.17;;
45402;SDS011;47427;51.976;5.326;2022-11-15T06:59:07;44.58;;;29.08;;
45402;SDS011;47427;51.976;5.326;2022-11-15T07:02:47;40.83;;;27.23;;
45402;SDS011;47427;51.976;5.326;2022-11-15T07:06:28;38.55;;;25.52;;
45402;SDS011;47427;51.976;5.326;2022-11-15T07:10:08;40.15;;;26.73;;
45402;SDS011;47427;51.976;5.326;2022-11-15T07:13:49;35.83;;;25.38;;
45402;SDS011;47427;51.976;5.326;2022-11-15T07:17:29;35.83;;;22.92;;
45402;SDS011;47427;51.976;5.326;2022-11-15T07:21:09;35.60;;;23.40;;
45402;SDS011;47427;51.976;5.326;2022-11-15T07:24:50;35.13;;;23.05;;
45402;SDS011;47427;51.976;5.326;2022-11-15T07:28:31;32.83;;;23.55;;
45402;SDS011;47427;51.976;5.326;2022-11-15T07:32:11;38.88;;;22.48;;
45402;SDS011;47427;51.976;5.326;2022-11-15T07:35:51;33.92;;;21.20;;
45402;SDS011;47427;51.976;5.326;2022-11-15T07:39:31;31.60;;;22.02;;
45402;SDS011;47427;51.976;5.326;2022-11-15T07:43:12;33.67;;;22.38;;
45402;SDS011;47427;51.976;5.326;2022-11-15T07:46:52;32.20;;;20.98;;
45402;SDS011;47427;51.976;5.326;2022-11-15T07:50:32;34.28;;;20.80;;
45402;SDS011;47427;51.976;5.326;2022-11-15T07:54:12;30.25;;;20.73;;
45402;SDS011;47427;51.976;5.326;2022-11-15T07:57:52;31.35;;;19.08;;
45402;SDS011;47427;51.976;5.326;2022-11-15T08:01:39;30.35;;;20.02;;
45402;SDS011;47427;51.976;5.326;2022-11-15T08:05:19;28.38;;;18.42;;
45402;SDS011;47427;51.976;5.326;2022-11-15T08:08:59;42.42;;;18.17;;
45402;SDS011;47427;51.976;5.326;2022-11-15T08:12:39;22.45;;;16.15;;
45402;SDS011;47427;51.976;5.326;2022-11-15T08:16:20;29.35;;;17.23;;
45402;SDS011;47427;51.976;5.326;2022-11-15T08:20:00;40.47;;;18.45;;
45402;SDS011;47427;51.976;5.326;2022-11-15T08:23:40;24.33;;;16.77;;
45402;SDS011;47427;51.976;5.326;2022-11-15T08:27:20;26.23;;;15.68;;
45402;SDS011;47427;51.976;5.326;2022-11-15T08:31:02;22.38;;;15.18;;
45402;SDS011;47427;51.976;5.326;2022-11-15T08:34:43;27.02;;;15.35;;
45402;SDS011;47427;51.976;5.326;2022-11-15T08:38:23;19.83;;;15.23;;
45402;SDS011;47427;51.976;5.326;2022-11-15T08:42:04;20.60;;;13.82;;
45402;SDS011;47427;51.976;5.326;2022-11-15T08:45:44;17.90;;;13.23;;
45402;SDS011;47427;51.976;5.326;2022-11-15T08:49:25;24.50;;;15.15;;
45402;SDS011;47427;51.976;5.326;2022-11-15T08:57:43;30.75;;;16.30;;
45402;SDS011;47427;51.976;5.326;2022-11-15T09:01:23;19.80;;;14.07;;
45402;SDS011;47427;51.976;5.326;2022-11-15T09:05:04;22.15;;;15.38;;
45402;SDS011;47427;51.976;5.326;2022-11-15T09:08:45;22.13;;;15.02;;
45402;SDS011;47427;51.976;5.326;2022-11-15T09:12:25;21.85;;;14.60;;
45402;SDS011;47427;51.976;5.326;2022-11-15T09:20:06;19.25;;;12.63;;
45402;SDS011;47427;51.976;5.326;2022-11-15T09:23:49;19.73;;;13.70;;
45402;SDS011;47427;51.976;5.326;2022-11-15T09:27:31;16.83;;;11.05;;
45402;SDS011;47427;51.976;5.326;2022-11-15T09:31:12;18.95;;;12.48;;
45402;SDS011;47427;51.976;5.326;2022-11-15T09:34:52;13.05;;;10.00;;
45402;SDS011;47427;51.976;5.326;2022-11-15T09:38:32;15.13;;;8.60;;
45402;SDS011;47427;51.976;5.326;2022-11-15T09:46:40;11.32;;;7.45;;
45402;SDS011;47427;51.976;5.326;2022-11-15T09:50:47;12.18;;;7.82;;
45402;SDS011;47427;51.976;5.326;2022-11-15T09:54:12;9.80;;;7.43;;
45402;SDS011;47427;51.976;5.326;2022-11-15T09:57:59;10.90;;;7.50;;
45402;SDS011;47427;51.976;5.326;2022-11-15T10:05:42;8.73;;;6.18;;
45402;SDS011;47427;51.976;5.326;2022-11-15T10:09:12;11.05;;;6.40;;
45402;SDS011;47427;51.976;5.326;2022-11-15T10:12:41;6.03;;;5.43;;
45402;SDS011;47427;51.976;5.326;2022-11-15T10:23:50;8.45;;;4.95;;
45402;SDS011;47427;51.976;5.326;2022-11-15T10:27:14;7.10;;;4.32;;
45402;SDS011;47427;51.976;5.326;2022-11-15T10:30:48;5.80;;;3.93;;
45402;SDS011;47427;51.976;5.326;2022-11-15T10:34:25;7.75;;;4.03;;
45402;SDS011;47427;51.976;5.326;2022-11-15T10:37:47;4.88;;;3.47;;
45402;SDS011;47427;51.976;5.326;2022-11-15T10:41:11;5.28;;;3.63;;
45402;SDS011;47427;51.976;5.326;2022-11-15T10:44:32;5.03;;;3.13;;
45402;SDS011;47427;51.976;5.326;2022-11-15T10:51:34;6.10;;;3.05;;
45402;SDS011;47427;51.976;5.326;2022-11-15T10:58:39;5.05;;;3.00;;
45402;SDS011;47427;51.976;5.326;2022-11-15T11:03:06;5.10;;;2.50;;
45402;SDS011;47427;51.976;5.326;2022-11-15T11:06:07;5.35;;;2.40;;
45402;SDS011;47427;51.976;5.326;2022-11-15T11:09:33;5.47;;;2.55;;
45402;SDS011;47427;51.976;5.326;2022-11-15T11:13:12;6.05;;;2.30;;
45402;SDS011;47427;51.976;5.326;2022-11-15T11:20:45;5.95;;;2.25;;
45402;SDS011;47427;51.976;5.326;2022-11-15T11:24:36;9.38;;;2.10;;
45402;SDS011;47427;51.976;5.326;2022-11-15T11:28:33;8.40;;;2.50;;
45402;SDS011;47427;51.976;5.326;2022-11-15T11:44:15;6.68;;;1.92;;
45402;SDS011;47427;51.976;5.326;2022-11-15T11:47:55;4.20;;;2.30;;
45402;SDS011;47427;51.976;5.326;2022-11-15T11:51:55;8.48;;;2.08;;
45402;SDS011;47427;51.976;5.326;2022-11-15T11:55:46;5.75;;;1.77;;
45402;SDS011;47427;51.976;5.326;2022-11-15T11:59:22;6.65;;;1.90;;
45402;SDS011;47427;51.976;5.326;2022-11-15T12:03:03;3.83;;;1.73;;
45402;SDS011;47427;51.976;5.326;2022-11-15T12:07:02;7.25;;;2.00;;
45402;SDS011;47427;51.976;5.326;2022-11-15T12:10:36;7.13;;;2.10;;
45402;SDS011;47427;51.976;5.326;2022-11-15T12:14:01;7.05;;;2.05;;
45402;SDS011;47427;51.976;5.326;2022-11-15T12:17:32;7.78;;;2.25;;
45402;SDS011;47427;51.976;5.326;2022-11-15T12:20:58;5.68;;;2.03;;
45402;SDS011;47427;51.976;5.326;2022-11-15T12:24:45;9.18;;;2.13;;
45402;SDS011;47427;51.976;5.326;2022-11-15T12:32:02;5.72;;;2.15;;
45402;SDS011;47427;51.976;5.326;2022-11-15T12:35:34;4.20;;;1.98;;
45402;SDS011;47427;51.976;5.326;2022-11-15T12:39:05;8.25;;;2.53;;
45402;SDS011;47427;51.976;5.326;2022-11-15T12:46:21;7.53;;;2.00;;
45402;SDS011;47427;51.976;5.326;2022-11-15T12:49:50;8.02;;;2.25;;
45402;SDS011;47427;51.976;5.326;2022-11-15T12:53:31;8.68;;;2.13;;
45402;SDS011;47427;51.976;5.326;2022-11-15T13:04:14;8.95;;;2.70;;
45402;SDS011;47427;51.976;5.326;2022-11-15T13:18:38;6.43;;;2.20;;
45402;SDS011;47427;51.976;5.326;2022-11-15T13:22:04;8.75;;;2.10;;
45402;SDS011;47427;51.976;5.326;2022-11-15T13:26:10;6.47;;;2.63;;
45402;SDS011;47427;51.976;5.326;2022-11-15T13:29:37;4.15;;;2.13;;
45402;SDS011;47427;51.976;5.326;2022-11-15T13:33:16;6.32;;;2.20;;
45402;SDS011;47427;51.976;5.326;2022-11-15T13:36:45;6.63;;;2.40;;
45402;SDS011;47427;51.976;5.326;2022-11-15T13:40:16;7.15;;;2.28;;
45402;SDS011;47427;51.976;5.326;2022-11-15T13:43:51;8.05;;;2.92;;
45402;SDS011;47427;51.976;5.326;2022-11-15T13:47:15;4.80;;;2.35;;
45402;SDS011;47427;51.976;5.326;2022-11-15T13:50:39;4.77;;;2.00;;
45402;SDS011;47427;51.976;5.326;2022-11-15T13:54:03;7.13;;;2.45;;
45402;SDS011;47427;51.976;5.326;2022-11-15T13:57:45;9.02;;;3.03;;
45402;SDS011;47427;51.976;5.326;2022-11-15T14:01:19;6.15;;;3.22;;
45402;SDS011;47427;51.976;5.326;2022-11-15T14:04:47;6.70;;;2.95;;
45402;SDS011;47427;51.976;5.326;2022-11-15T14:08:22;3.45;;;2.33;;
45402;SDS011;47427;51.976;5.326;2022-11-15T14:11:52;4.82;;;2.38;;
45402;SDS011;47427;51.976;5.326;2022-11-15T14:15:24;7.47;;;2.65;;
45402;SDS011;47427;51.976;5.326;2022-11-15T14:18:51;3.85;;;2.35;;
45402;SDS011;47427;51.976;5.326;2022-11-15T14:25:53;4.82;;;2.78;;
45402;SDS011;47427;51.976;5.326;2022-11-15T14:29:26;6.88;;;2.85;;
45402;SDS011;47427;51.976;5.326;2022-11-15T14:32:52;5.18;;;2.40;;
45402;SDS011;47427;51.976;5.326;2022-11-15T14:36:15;7.25;;;2.30;;
45402;SDS011;47427;51.976;5.326;2022-11-15T14:39:39;5.18;;;2.00;;
45402;SDS011;47427;51.976;5.326;2022-11-15T14:43:01;10.38;;;2.80;;
45402;SDS011;47427;51.976;5.326;2022-11-15T14:46:22;6.40;;;2.20;;
45402;SDS011;47427;51.976;5.326;2022-11-15T14:49:44;6.65;;;2.20;;
45402;SDS011;47427;51.976;5.326;2022-11-15T14:53:06;10.95;;;2.80;;
45402;SDS011;47427;51.976;5.326;2022-11-15T14:56:32;9.98;;;3.22;;
45402;SDS011;47427;51.976;5.326;2022-11-15T14:59:53;6.90;;;3.05;;
45402;SDS011;47427;51.976;5.326;2022-11-15T15:03:15;10.77;;;3.30;;
45402;SDS011;47427;51.976;5.326;2022-11-15T15:06:36;8.93;;;3.67;;
45402;SDS011;47427;51.976;5.326;2022-11-15T15:09:59;7.75;;;2.80;;
45402;SDS011;47427;51.976;5.326;2022-11-15T15:13:23;8.52;;;2.83;;
45402;SDS011;47427;51.976;5.326;2022-11-15T15:16:45;7.32;;;2.63;;
45402;SDS011;47427;51.976;5.326;2022-11-15T15:20:08;6.25;;;3.33;;
45402;SDS011;47427;51.976;5.326;2022-11-15T15:23:32;4.88;;;2.40;;
45402;SDS011;47427;51.976;5.326;2022-11-15T15:26:56;11.07;;;3.22;;
45402;SDS011;47427;51.976;5.326;2022-11-15T15:30:18;10.65;;;5.00;;
45402;SDS011;47427;51.976;5.326;2022-11-15T15:33:40;5.38;;;2.70;;
45402;SDS011;47427;51.976;5.326;2022-11-15T15:40:44;8.98;;;4.72;;
45402;SDS011;47427;51.976;5.326;2022-11-15T15:44:06;11.75;;;5.05;;
45402;SDS011;47427;51.976;5.326;2022-11-15T15:47:27;5.25;;;2.15;;
45402;SDS011;47427;51.976;5.326;2022-11-15T15:50:49;5.85;;;1.90;;
45402;SDS011;47427;51.976;5.326;2022-11-15T15:54:10;7.38;;;3.05;;
45402;SDS011;47427;51.976;5.326;2022-11-15T15:57:32;10.00;;;2.40;;
45402;SDS011;47427;51.976;5.326;2022-11-15T16:00:53;5.22;;;2.30;;
45402;SDS011;47427;51.976;5.326;2022-11-15T16:04:15;7.30;;;2.53;;
45402;SDS011;47427;51.976;5.326;2022-11-15T16:07:37;11.52;;;5.95;;
45402;SDS011;47427;51.976;5.326;2022-11-15T16:11:00;9.60;;;4.88;;
45402;SDS011;47427;51.976;5.326;2022-11-15T16:14:24;11.57;;;2.13;;
45402;SDS011;47427;51.976;5.326;2022-11-15T16:18:04;3.72;;;1.92;;
45402;SDS011;47427;51.976;5.326;2022-11-15T16:21:35;3.53;;;1.88;;
45402;SDS011;47427;51.976;5.326;2022-11-15T16:24:57;1.58;;;1.48;;
45402;SDS011;47427;51.976;5.326;2022-11-15T16:28:20;2.50;;;1.73;;
45402;SDS011;47427;51.976;5.326;2022-11-15T16:31:49;7.43;;;2.63;;
45402;SDS011;47427;51.976;5.326;2022-11-15T16:35:11;6.80;;;2.05;;
45402;SDS011;47427;51.976;5.326;2022-11-15T16:38:35;10.23;;;1.92;;
45402;SDS011;47427;51.976;5.326;2022-11-15T16:41:57;4.10;;;1.80;;
45402;SDS011;47427;51.976;5.326;2022-11-15T16:45:19;5.75;;;1.70;;
45402;SDS011;47427;51.976;5.326;2022-11-15T16:48:41;5.35;;;1.92;;
45402;SDS011;47427;51.976;5.326;2022-11-15T16:52:02;7.25;;;2.75;;
45402;SDS011;47427;51.976;5.326;2022-11-15T16:55:26;4.90;;;1.95;;
45402;SDS011;47427;51.976;5.326;2022-11-15T16:58:49;6.13;;;2.50;;
45402;SDS011;47427;51.976;5.326;2022-11-15T17:02:13;7.95;;;2.45;;
45402;SDS011;47427;51.976;5.326;2022-11-15T17:05:35;5.63;;;2.63;;
45402;SDS011;47427;51.976;5.326;2022-11-15T17:09:22;7.05;;;2.97;;
45402;SDS011;47427;51.976;5.326;2022-11-15T17:12:44;4.20;;;2.17;;
45402;SDS011;47427;51.976;5.326;2022-11-15T17:16:06;9.98;;;3.40;;
45402;SDS011;47427;51.976;5.326;2022-11-15T17:19:36;6.00;;;3.10;;
45402;SDS011;47427;51.976;5.326;2022-11-15T17:22:58;6.63;;;2.90;;
45402;SDS011;47427;51.976;5.326;2022-11-15T17:26:19;7.50;;;2.85;;
45402;SDS011;47427;51.976;5.326;2022-11-15T17:29:41;8.43;;;3.13;;
45402;SDS011;47427;51.976;5.326;2022-11-15T17:33:03;6.72;;;3.22;;
45402;SDS011;47427;51.976;5.326;2022-11-15T17:36:24;7.10;;;3.35;;
45402;SDS011;47427;51.976;5.326;2022-11-15T17:39:46;3.72;;;3.10;;
45402;SDS011;47427;51.976;5.326;2022-11-15T17:43:08;5.25;;;2.90;;
45402;SDS011;47427;51.976;5.326;2022-11-15T17:46:29;7.22;;;3.67;;
45402;SDS011;47427;51.976;5.326;2022-11-15T17:49:51;6.88;;;3.90;;
45402;SDS011;47427;51.976;5.326;2022-11-15T17:53:13;4.32;;;3.30;;
45402;SDS011;47427;51.976;5.326;2022-11-15T17:56:36;9.82;;;4.13;;
45402;SDS011;47427;51.976;5.326;2022-11-15T18:00:00;7.05;;;3.85;;
45402;SDS011;47427;51.976;5.326;2022-11-15T18:03:24;12.25;;;5.57;;
45402;SDS011;47427;51.976;5.326;2022-11-15T18:06:46;10.88;;;4.57;;
45402;SDS011;47427;51.976;5.326;2022-11-15T18:10:07;10.85;;;4.18;;
45402;SDS011;47427;51.976;5.326;2022-11-15T18:13:29;7.47;;;4.43;;
45402;SDS011;47427;51.976;5.326;2022-11-15T18:16:51;8.60;;;5.20;;
45402;SDS011;47427;51.976;5.326;2022-11-15T18:20:14;12.73;;;6.75;;
45402;SDS011;47427;51.976;5.326;2022-11-15T18:23:36;8.27;;;4.40;;
45402;SDS011;47427;51.976;5.326;2022-11-15T18:26:58;6.60;;;4.82;;
45402;SDS011;47427;51.976;5.326;2022-11-15T18:30:21;11.60;;;5.72;;
45402;SDS011;47427;51.976;5.326;2022-11-15T18:33:43;6.38;;;4.90;;
45402;SDS011;47427;51.976;5.326;2022-11-15T18:37:05;8.23;;;5.22;;
45402;SDS011;47427;51.976;5.326;2022-11-15T18:40:27;13.02;;;5.55;;
45402;SDS011;47427;51.976;5.326;2022-11-15T18:43:48;6.10;;;5.13;;
45402;SDS011;47427;51.976;5.326;2022-11-15T18:47:11;10.65;;;6.30;;
45402;SDS011;47427;51.976;5.326;2022-11-15T18:50:32;9.32;;;5.38;;
45402;SDS011;47427;51.976;5.326;2022-11-15T18:53:58;6.18;;;5.32;;
45402;SDS011;47427;51.976;5.326;2022-11-15T18:57:21;10.10;;;6.20;;
45402;SDS011;47427;51.976;5.326;2022-11-15T19:00:43;5.63;;;4.60;;
45402;SDS011;47427;51.976;5.326;2022-11-15T19:04:06;9.10;;;5.82;;
45402;SDS011;47427;51.976;5.326;2022-11-15T19:07:32;9.60;;;6.07;;
45402;SDS011;47427;51.976;5.326;2022-11-15T19:10:54;13.05;;;6.88;;
45402;SDS011;47427;51.976;5.326;2022-11-15T19:14:16;9.88;;;7.00;;
45402;SDS011;47427;51.976;5.326;2022-11-15T19:17:38;10.63;;;6.95;;
45402;SDS011;47427;51.976;5.326;2022-11-15T19:21:04;6.90;;;6.20;;
45402;SDS011;47427;51.976;5.326;2022-11-15T19:24:31;8.95;;;6.20;;
45402;SDS011;47427;51.976;5.326;2022-11-15T19:27:59;6.93;;;6.22;;
45402;SDS011;47427;51.976;5.326;2022-11-15T19:31:21;9.73;;;6.30;;
45402;SDS011;47427;51.976;5.326;2022-11-15T19:34:44;11.55;;;7.07;;
45402;SDS011;47427;51.976;5.326;2022-11-15T19:38:05;7.45;;;6.03;;
45402;SDS011;47427;51.976;5.326;2022-11-15T19:41:27;9.07;;;8.10;;
45402;SDS011;47427;51.976;5.326;2022-11-15T19:44:48;9.68;;;6.55;;
45402;SDS011;47427;51.976;5.326;2022-11-15T19:48:10;10.00;;;6.90;;
45402;SDS011;47427;51.976;5.326;2022-11-15T19:51:31;12.45;;;6.97;;
45402;SDS011;47427;51.976;5.326;2022-11-15T19:54:53;9.25;;;6.65;;
45402;SDS011;47427;51.976;5.326;2022-11-15T19:58:15;14.52;;;9.60;;
45402;SDS011;47427;51.976;5.326;2022-11-15T20:01:37;11.02;;;7.15;;
45402;SDS011;47427;51.976;5.326;2022-11-15T20:04:58;9.88;;;7.60;;
45402;SDS011;47427;51.976;5.326;2022-11-15T20:08:20;8.80;;;7.88;;
45402;SDS011;47427;51.976;5.326;2022-11-15T20:11:41;19.23;;;11.32;;
45402;SDS011;47427;51.976;5.326;2022-11-15T20:15:04;9.13;;;7.47;;
45402;SDS011;47427;51.976;5.326;2022-11-15T20:18:27;13.23;;;9.35;;
45402;SDS011;47427;51.976;5.326;2022-11-15T20:21:49;13.25;;;8.13;;
45402;SDS011;47427;51.976;5.326;2022-11-15T20:25:11;8.90;;;7.45;;
45402;SDS011;47427;51.976;5.326;2022-11-15T20:28:34;10.85;;;7.93;;
45402;SDS011;47427;51.976;5.326;2022-11-15T20:31:57;10.70;;;9.43;;
45402;SDS011;47427;51.976;5.326;2022-11-15T20:35:19;9.98;;;7.88;;
45402;SDS011;47427;51.976;5.326;2022-11-15T20:38:40;14.65;;;9.00;;
45402;SDS011;47427;51.976;5.326;2022-11-15T20:42:02;10.02;;;8.38;;
45402;SDS011;47427;51.976;5.326;2022-11-15T20:45:24;13.90;;;8.57;;
45402;SDS011;47427;51.976;5.326;2022-11-15T20:48:45;12.05;;;8.80;;
45402;SDS011;47427;51.976;5.326;2022-11-15T20:52:07;12.20;;;10.18;;
45402;SDS011;47427;51.976;5.326;2022-11-15T20:55:29;13.77;;;10.18;;
45402;SDS011;47427;51.976;5.326;2022-11-15T20:58:51;12.48;;;9.35;;
45402;SDS011;47427;51.976;5.326;2022-11-15T21:02:13;14.07;;;10.23;;
45402;SDS011;47427;51.976;5.326;2022-11-15T21:05:38;11.50;;;10.02;;
45402;SDS011;47427;51.976;5.326;2022-11-15T21:09:02;14.15;;;11.07;;
45402;SDS011;47427;51.976;5.326;2022-11-15T21:12:42;14.63;;;11.93;;
45402;SDS011;47427;51.976;5.326;2022-11-15T21:16:04;14.57;;;11.82;;
45402;SDS011;47427;51.976;5.326;2022-11-15T21:19:26;14.30;;;11.48;;
45402;SDS011;47427;51.976;5.326;2022-11-15T21:22:48;12.90;;;11.60;;
45402;SDS011;47427;51.976;5.326;2022-11-15T21:26:09;15.63;;;12.95;;
45402;SDS011;47427;51.976;5.326;2022-11-15T21:29:31;15.18;;;13.10;;
45402;SDS011;47427;51.976;5.326;2022-11-15T21:32:58;14.20;;;12.60;;
45402;SDS011;47427;51.976;5.326;2022-11-15T21:36:20;15.73;;;13.95;;
45402;SDS011;47427;51.976;5.326;2022-11-15T21:39:41;15.68;;;13.55;;
45402;SDS011;47427;51.976;5.326;2022-11-15T21:43:03;17.73;;;14.25;;
45402;SDS011;47427;51.976;5.326;2022-11-15T21:46:24;18.45;;;13.48;;
45402;SDS011;47427;51.976;5.326;2022-11-15T21:49:47;16.23;;;12.95;;
45402;SDS011;47427;51.976;5.326;2022-11-15T21:53:33;16.35;;;13.88;;
45402;SDS011;47427;51.976;5.326;2022-11-15T21:56:55;16.98;;;13.45;;
45402;SDS011;47427;51.976;5.326;2022-11-15T22:00:17;15.65;;;13.50;;
45402;SDS011;47427;51.976;5.326;2022-11-15T22:03:57;15.27;;;12.32;;
45402;SDS011;47427;51.976;5.326;2022-11-15T22:07:19;17.73;;;12.60;;
45402;SDS011;47427;51.976;5.326;2022-11-15T22:10:40;15.85;;;14.20;;
45402;SDS011;47427;51.976;5.326;2022-11-15T22:14:07;15.50;;;13.48;;
45402;SDS011;47427;51.976;5.326;2022-11-15T22:17:28;15.13;;;13.45;;
45402;SDS011;47427;51.976;5.326;2022-11-15T22:21:11;13.90;;;11.75;;
45402;SDS011;47427;51.976;5.326;2022-11-15T22:24:34;14.65;;;12.60;;
45402;SDS011;47427;51.976;5.326;2022-11-15T22:27:56;17.08;;;13.02;;
45402;SDS011;47427;51.976;5.326;2022-11-15T22:31:17;16.67;;;14.00;;
45402;SDS011;47427;51.976;5.326;2022-11-15T22:34:39;15.50;;;12.82;;
45402;SDS011;47427;51.976;5.326;2022-11-15T22:38:00;19.15;;;13.43;;
45402;SDS011;47427;51.976;5.326;2022-11-15T22:41:22;16.98;;;13.05;;
45402;SDS011;47427;51.976;5.326;2022-11-15T22:44:43;13.80;;;12.30;;
45402;SDS011;47427;51.976;5.326;2022-11-15T22:48:05;13.77;;;12.35;;
45402;SDS011;47427;51.976;5.326;2022-11-15T22:51:26;15.38;;;13.15;;